sensor_id;sensor_type;location;lat;lon;timestamp;P1;durP1;ratioP1;P2;durP2;ratioP2
48363;SDS011;34170;54.364;18.582;2023-04-12T00:01:10;4.90;;;3.38;;
48363;SDS011;34170;54.364;18.582;2023-04-12T00:03:38;5.90;;;4.15;;
48363;SDS011;34170;54.364;18.582;2023-04-12T00:06:06;4.93;;;3.42;;
48363;SDS011;34170;54.364;18.582;2023-04-12T00:08:34;5.80;;;3.70;;
48363;SDS011;34170;54.364;18.582;2023-04-12T00:11:01;5.88;;;3.83;;
48363;SDS011;34170;54.364;18.582;2023-04-12T00:13:29;5.35;;;3.60;;
48363;SDS011;34170;54.364;18.582;2023-04-12T00:15:57;7.07;;;4.18;;
48363;SDS011;34170;54.364;18.582;2023-04-12T00:18:24;6.63;;;4.13;;
48363;SDS011;34170;54.364;18.582;2023-04-12T00:20:56;6.43;;;4.18;;
48363;SDS011;34170;54.364;18.582;2023-04-12T00:23:23;6.43;;;3.90;;
48363;SDS011;34170;54.364;18.582;2023-04-12T00:25:51;6.13;;;4.07;;
48363;SDS011;34170;54.364;18.582;2023-04-12T00:28:18;5.28;;;3.40;;
48363;SDS011;34170;54.364;18.582;2023-04-12T00:30:46;5.28;;;3.50;;
48363;SDS011;34170;54.364;18.582;2023-04-12T00:33:13;5.85;;;3.75;;
48363;SDS011;34170;54.364;18.582;2023-04-12T00:35:40;4.78;;;3.15;;
48363;SDS011;34170;54.364;18.582;2023-04-12T00:38:08;5.20;;;3.47;;
48363;SDS011;34170;54.364;18.582;2023-04-12T00:40:40;6.18;;;4.03;;
48363;SDS011;34170;54.364;18.582;2023-04-12T00:43:11;5.53;;;4.07;;
48363;SDS011;34170;54.364;18.582;2023-04-12T00:45:45;4.80;;;3.40;;
48363;SDS011;34170;54.364;18.582;2023-04-12T00:48:13;5.97;;;4.00;;
48363;SDS011;34170;54.364;18.582;2023-04-12T00:50:41;6.13;;;4.03;;
48363;SDS011;34170;54.364;18.582;2023-04-12T00:53:12;6.25;;;4.35;;
48363;SDS011;34170;54.364;18.582;2023-04-12T00:55:41;7.00;;;4.35;;
48363;SDS011;34170;54.364;18.582;2023-04-12T00:58:11;7.28;;;5.10;;
48363;SDS011;34170;54.364;18.582;2023-04-12T01:00:39;7.90;;;5.20;;
48363;SDS011;34170;54.364;18.582;2023-04-12T01:03:08;7.78;;;5.00;;
48363;SDS011;34170;54.364;18.582;2023-04-12T01:05:39;7.43;;;5.05;;
48363;SDS011;34170;54.364;18.582;2023-04-12T01:08:27;8.70;;;5.32;;
48363;SDS011;34170;54.364;18.582;2023-04-12T01:14:16;7.15;;;5.03;;
48363;SDS011;34170;54.364;18.582;2023-04-12T01:17:12;8.15;;;5.75;;
48363;SDS011;34170;54.364;18.582;2023-04-12T01:28:14;7.75;;;5.38;;
48363;SDS011;34170;54.364;18.582;2023-04-12T01:30:47;8.00;;;5.53;;
48363;SDS011;34170;54.364;18.582;2023-04-12T01:33:20;10.38;;;5.90;;
48363;SDS011;34170;54.364;18.582;2023-04-12T01:35:50;7.55;;;4.80;;
48363;SDS011;34170;54.364;18.582;2023-04-12T01:38:19;8.25;;;4.97;;
48363;SDS011;34170;54.364;18.582;2023-04-12T01:40:47;7.03;;;4.68;;
48363;SDS011;34170;54.364;18.582;2023-04-12T01:43:17;6.38;;;4.53;;
48363;SDS011;34170;54.364;18.582;2023-04-12T01:45:45;6.70;;;4.10;;
48363;SDS011;34170;54.364;18.582;2023-04-12T01:48:12;5.72;;;4.05;;
48363;SDS011;34170;54.364;18.582;2023-04-12T01:50:43;6.05;;;4.20;;
48363;SDS011;34170;54.364;18.582;2023-04-12T01:56:25;5.80;;;4.03;;
48363;SDS011;34170;54.364;18.582;2023-04-12T01:58:57;6.50;;;4.22;;
48363;SDS011;34170;54.364;18.582;2023-04-12T02:01:27;6.32;;;4.20;;
48363;SDS011;34170;54.364;18.582;2023-04-12T02:03:58;5.85;;;3.90;;
48363;SDS011;34170;54.364;18.582;2023-04-12T02:06:28;6.22;;;3.90;;
48363;SDS011;34170;54.364;18.582;2023-04-12T02:08:57;5.38;;;3.83;;
48363;SDS011;34170;54.364;18.582;2023-04-12T02:11:26;6.88;;;3.92;;
48363;SDS011;34170;54.364;18.582;2023-04-12T02:13:53;5.25;;;3.85;;
48363;SDS011;34170;54.364;18.582;2023-04-12T02:16:21;5.07;;;3.70;;
48363;SDS011;34170;54.364;18.582;2023-04-12T02:18:49;5.57;;;3.72;;
48363;SDS011;34170;54.364;18.582;2023-04-12T02:21:18;4.32;;;3.35;;
48363;SDS011;34170;54.364;18.582;2023-04-12T02:23:45;6.10;;;3.67;;
48363;SDS011;34170;54.364;18.582;2023-04-12T02:26:13;5.47;;;3.80;;
48363;SDS011;34170;54.364;18.582;2023-04-12T02:28:40;6.13;;;3.78;;
48363;SDS011;34170;54.364;18.582;2023-04-12T02:31:11;8.23;;;3.88;;
48363;SDS011;34170;54.364;18.582;2023-04-12T02:33:39;6.70;;;4.18;;
48363;SDS011;34170;54.364;18.582;2023-04-12T02:36:09;6.63;;;3.88;;
48363;SDS011;34170;54.364;18.582;2023-04-12T02:38:38;6.75;;;4.70;;
48363;SDS011;34170;54.364;18.582;2023-04-12T02:41:07;7.22;;;4.40;;
48363;SDS011;34170;54.364;18.582;2023-04-12T02:43:34;6.22;;;4.20;;
48363;SDS011;34170;54.364;18.582;2023-04-12T02:46:07;6.57;;;4.38;;
48363;SDS011;34170;54.364;18.582;2023-04-12T02:48:41;6.10;;;4.25;;
48363;SDS011;34170;54.364;18.582;2023-04-12T02:51:10;6.82;;;4.25;;
48363;SDS011;34170;54.364;18.582;2023-04-12T02:53:39;7.00;;;4.50;;
48363;SDS011;34170;54.364;18.582;2023-04-12T02:56:15;6.32;;;4.82;;
48363;SDS011;34170;54.364;18.582;2023-04-12T02:58:49;8.35;;;5.10;;
48363;SDS011;34170;54.364;18.582;2023-04-12T03:01:30;7.03;;;4.70;;
48363;SDS011;34170;54.364;18.582;2023-04-12T03:04:15;9.05;;;5.03;;
48363;SDS011;34170;54.364;18.582;2023-04-12T03:06:50;8.25;;;5.25;;
48363;SDS011;34170;54.364;18.582;2023-04-12T03:09:27;8.63;;;5.35;;
48363;SDS011;34170;54.364;18.582;2023-04-12T03:11:55;7.10;;;4.57;;
48363;SDS011;34170;54.364;18.582;2023-04-12T03:14:23;7.25;;;4.35;;
48363;SDS011;34170;54.364;18.582;2023-04-12T03:16:51;6.85;;;4.80;;
48363;SDS011;34170;54.364;18.582;2023-04-12T03:19:19;7.68;;;4.70;;
48363;SDS011;34170;54.364;18.582;2023-04-12T03:21:53;7.65;;;4.80;;
48363;SDS011;34170;54.364;18.582;2023-04-12T03:24:21;7.95;;;4.55;;
48363;SDS011;34170;54.364;18.582;2023-04-12T03:26:49;7.78;;;4.75;;
48363;SDS011;34170;54.364;18.582;2023-04-12T03:29:22;7.03;;;4.90;;
48363;SDS011;34170;54.364;18.582;2023-04-12T03:31:52;12.25;;;4.85;;
48363;SDS011;34170;54.364;18.582;2023-04-12T03:34:19;7.72;;;4.45;;
48363;SDS011;34170;54.364;18.582;2023-04-12T03:36:52;7.72;;;4.05;;
48363;SDS011;34170;54.364;18.582;2023-04-12T03:39:36;6.75;;;4.35;;
48363;SDS011;34170;54.364;18.582;2023-04-12T03:42:06;6.75;;;4.18;;
48363;SDS011;34170;54.364;18.582;2023-04-12T03:44:48;7.63;;;4.20;;
48363;SDS011;34170;54.364;18.582;2023-04-12T03:47:15;6.22;;;3.85;;
48363;SDS011;34170;54.364;18.582;2023-04-12T03:49:43;6.68;;;3.75;;
48363;SDS011;34170;54.364;18.582;2023-04-12T03:52:23;6.00;;;3.92;;
48363;SDS011;34170;54.364;18.582;2023-04-12T03:54:51;6.63;;;3.97;;
48363;SDS011;34170;54.364;18.582;2023-04-12T03:57:25;5.50;;;3.60;;
48363;SDS011;34170;54.364;18.582;2023-04-12T03:59:52;6.50;;;3.78;;
48363;SDS011;34170;54.364;18.582;2023-04-12T04:02:25;6.93;;;4.03;;
48363;SDS011;34170;54.364;18.582;2023-04-12T04:04:56;5.68;;;3.65;;
48363;SDS011;34170;54.364;18.582;2023-04-12T04:07:26;9.30;;;4.45;;
48363;SDS011;34170;54.364;18.582;2023-04-12T04:09:55;6.05;;;4.03;;
48363;SDS011;34170;54.364;18.582;2023-04-12T04:12:25;6.30;;;4.05;;
48363;SDS011;34170;54.364;18.582;2023-04-12T04:14:54;6.40;;;3.88;;
48363;SDS011;34170;54.364;18.582;2023-04-12T04:17:29;7.45;;;4.63;;
48363;SDS011;34170;54.364;18.582;2023-04-12T04:19:57;6.28;;;4.43;;
48363;SDS011;34170;54.364;18.582;2023-04-12T04:22:25;6.35;;;4.38;;
48363;SDS011;34170;54.364;18.582;2023-04-12T04:24:53;9.30;;;4.75;;
48363;SDS011;34170;54.364;18.582;2023-04-12T04:27:21;8.05;;;4.85;;
48363;SDS011;34170;54.364;18.582;2023-04-12T04:29:51;6.57;;;4.07;;
48363;SDS011;34170;54.364;18.582;2023-04-12T04:32:19;7.38;;;5.18;;
48363;SDS011;34170;54.364;18.582;2023-04-12T04:34:47;6.97;;;4.35;;
48363;SDS011;34170;54.364;18.582;2023-04-12T04:37:17;10.32;;;5.07;;
48363;SDS011;34170;54.364;18.582;2023-04-12T04:39:47;8.23;;;5.35;;
48363;SDS011;34170;54.364;18.582;2023-04-12T04:42:14;8.20;;;4.68;;
48363;SDS011;34170;54.364;18.582;2023-04-12T04:44:59;8.88;;;5.32;;
48363;SDS011;34170;54.364;18.582;2023-04-12T04:47:32;7.10;;;4.55;;
48363;SDS011;34170;54.364;18.582;2023-04-12T04:50:00;7.22;;;4.90;;
48363;SDS011;34170;54.364;18.582;2023-04-12T04:52:29;7.60;;;4.85;;
48363;SDS011;34170;54.364;18.582;2023-04-12T04:55:01;7.45;;;4.80;;
48363;SDS011;34170;54.364;18.582;2023-04-12T04:57:35;8.18;;;4.22;;
48363;SDS011;34170;54.364;18.582;2023-04-12T05:00:03;8.45;;;4.40;;
48363;SDS011;34170;54.364;18.582;2023-04-12T05:02:39;7.95;;;4.55;;
48363;SDS011;34170;54.364;18.582;2023-04-12T05:05:16;7.88;;;4.97;;
48363;SDS011;34170;54.364;18.582;2023-04-12T05:07:45;8.02;;;4.38;;
48363;SDS011;34170;54.364;18.582;2023-04-12T05:10:13;7.88;;;4.20;;
48363;SDS011;34170;54.364;18.582;2023-04-12T05:12:42;6.82;;;4.30;;
48363;SDS011;34170;54.364;18.582;2023-04-12T05:15:12;7.30;;;4.88;;
48363;SDS011;34170;54.364;18.582;2023-04-12T05:17:40;7.88;;;5.05;;
48363;SDS011;34170;54.364;18.582;2023-04-12T05:20:07;8.52;;;4.57;;
48363;SDS011;34170;54.364;18.582;2023-04-12T05:22:38;9.32;;;4.45;;
48363;SDS011;34170;54.364;18.582;2023-04-12T05:25:05;6.00;;;4.30;;
48363;SDS011;34170;54.364;18.582;2023-04-12T05:27:38;6.55;;;4.13;;
48363;SDS011;34170;54.364;18.582;2023-04-12T05:30:08;7.10;;;4.20;;
48363;SDS011;34170;54.364;18.582;2023-04-12T05:32:36;7.78;;;4.32;;
48363;SDS011;34170;54.364;18.582;2023-04-12T05:35:03;6.13;;;3.45;;
48363;SDS011;34170;54.364;18.582;2023-04-12T05:37:33;6.32;;;3.63;;
48363;SDS011;34170;54.364;18.582;2023-04-12T05:40:01;7.32;;;4.28;;
48363;SDS011;34170;54.364;18.582;2023-04-12T05:42:29;6.05;;;3.95;;
48363;SDS011;34170;54.364;18.582;2023-04-12T05:44:57;6.03;;;3.90;;
48363;SDS011;34170;54.364;18.582;2023-04-12T05:47:25;5.78;;;3.80;;
48363;SDS011;34170;54.364;18.582;2023-04-12T05:49:55;7.95;;;3.63;;
48363;SDS011;34170;54.364;18.582;2023-04-12T05:52:22;6.45;;;4.32;;
48363;SDS011;34170;54.364;18.582;2023-04-12T05:54:51;5.72;;;3.70;;
48363;SDS011;34170;54.364;18.582;2023-04-12T05:57:21;6.88;;;4.47;;
48363;SDS011;34170;54.364;18.582;2023-04-12T05:59:48;5.88;;;3.78;;
48363;SDS011;34170;54.364;18.582;2023-04-12T06:02:17;4.47;;;3.28;;
48363;SDS011;34170;54.364;18.582;2023-04-12T06:04:45;4.13;;;2.92;;
48363;SDS011;34170;54.364;18.582;2023-04-12T06:07:18;5.10;;;3.35;;
48363;SDS011;34170;54.364;18.582;2023-04-12T06:09:47;3.97;;;3.25;;
48363;SDS011;34170;54.364;18.582;2023-04-12T06:12:16;4.22;;;2.88;;
48363;SDS011;34170;54.364;18.582;2023-04-12T06:14:44;4.93;;;2.90;;
48363;SDS011;34170;54.364;18.582;2023-04-12T06:17:12;4.95;;;3.15;;
48363;SDS011;34170;54.364;18.582;2023-04-12T06:19:39;6.10;;;2.63;;
48363;SDS011;34170;54.364;18.582;2023-04-12T06:22:07;7.10;;;3.60;;
48363;SDS011;34170;54.364;18.582;2023-04-12T06:24:35;5.18;;;3.22;;
48363;SDS011;34170;54.364;18.582;2023-04-12T06:27:03;3.70;;;2.70;;
48363;SDS011;34170;54.364;18.582;2023-04-12T06:29:31;4.68;;;3.13;;
48363;SDS011;34170;54.364;18.582;2023-04-12T06:31:59;6.40;;;2.88;;
48363;SDS011;34170;54.364;18.582;2023-04-12T06:34:26;4.82;;;3.15;;
48363;SDS011;34170;54.364;18.582;2023-04-12T06:39:25;5.53;;;3.40;;
48363;SDS011;34170;54.364;18.582;2023-04-12T06:41:53;5.18;;;3.67;;
48363;SDS011;34170;54.364;18.582;2023-04-12T06:44:21;6.05;;;3.67;;
48363;SDS011;34170;54.364;18.582;2023-04-12T06:46:48;6.00;;;4.05;;
48363;SDS011;34170;54.364;18.582;2023-04-12T06:49:16;6.90;;;4.00;;
48363;SDS011;34170;54.364;18.582;2023-04-12T06:51:43;8.63;;;3.88;;
48363;SDS011;34170;54.364;18.582;2023-04-12T06:54:12;7.10;;;3.58;;
48363;SDS011;34170;54.364;18.582;2023-04-12T06:56:40;5.10;;;3.05;;
48363;SDS011;34170;54.364;18.582;2023-04-12T06:59:07;6.30;;;3.85;;
48363;SDS011;34170;54.364;18.582;2023-04-12T07:01:35;7.82;;;4.40;;
48363;SDS011;34170;54.364;18.582;2023-04-12T07:04:02;11.52;;;4.25;;
48363;SDS011;34170;54.364;18.582;2023-04-12T07:06:30;7.40;;;4.97;;
48363;SDS011;34170;54.364;18.582;2023-04-12T07:08:58;11.75;;;6.25;;
48363;SDS011;34170;54.364;18.582;2023-04-12T07:11:26;11.05;;;6.60;;
48363;SDS011;34170;54.364;18.582;2023-04-12T07:13:54;10.32;;;6.20;;
48363;SDS011;34170;54.364;18.582;2023-04-12T07:16:22;13.88;;;7.38;;
48363;SDS011;34170;54.364;18.582;2023-04-12T07:18:49;9.93;;;6.45;;
48363;SDS011;34170;54.364;18.582;2023-04-12T07:21:17;10.77;;;5.68;;
48363;SDS011;34170;54.364;18.582;2023-04-12T07:23:45;10.30;;;6.72;;
48363;SDS011;34170;54.364;18.582;2023-04-12T07:26:13;11.52;;;6.85;;
48363;SDS011;34170;54.364;18.582;2023-04-12T07:28:40;16.02;;;7.10;;
48363;SDS011;34170;54.364;18.582;2023-04-12T07:31:08;12.82;;;7.18;;
48363;SDS011;34170;54.364;18.582;2023-04-12T07:33:35;10.32;;;7.05;;
48363;SDS011;34170;54.364;18.582;2023-04-12T07:36:06;10.77;;;6.73;;
48363;SDS011;34170;54.364;18.582;2023-04-12T07:38:34;13.40;;;7.07;;
48363;SDS011;34170;54.364;18.582;2023-04-12T07:41:02;20.50;;;8.02;;
48363;SDS011;34170;54.364;18.582;2023-04-12T07:43:29;12.32;;;6.85;;
48363;SDS011;34170;54.364;18.582;2023-04-12T07:45:57;18.58;;;6.93;;
48363;SDS011;34170;54.364;18.582;2023-04-12T07:48:25;19.73;;;7.97;;
48363;SDS011;34170;54.364;18.582;2023-04-12T07:50:52;9.93;;;6.53;;
48363;SDS011;34170;54.364;18.582;2023-04-12T07:53:29;11.45;;;6.85;;
48363;SDS011;34170;54.364;18.582;2023-04-12T07:55:57;12.35;;;6.47;;
48363;SDS011;34170;54.364;18.582;2023-04-12T07:58:24;12.93;;;6.55;;
48363;SDS011;34170;54.364;18.582;2023-04-12T08:00:52;11.95;;;6.82;;
48363;SDS011;34170;54.364;18.582;2023-04-12T08:03:19;9.63;;;5.80;;
48363;SDS011;34170;54.364;18.582;2023-04-12T08:05:47;11.10;;;6.07;;
48363;SDS011;34170;54.364;18.582;2023-04-12T08:08:19;10.52;;;6.60;;
48363;SDS011;34170;54.364;18.582;2023-04-12T08:10:49;11.13;;;6.63;;
48363;SDS011;34170;54.364;18.582;2023-04-12T08:13:18;6.18;;;4.13;;
48363;SDS011;34170;54.364;18.582;2023-04-12T08:15:46;7.78;;;4.35;;
48363;SDS011;34170;54.364;18.582;2023-04-12T08:18:14;9.73;;;4.63;;
48363;SDS011;34170;54.364;18.582;2023-04-12T08:20:41;5.63;;;4.05;;
48363;SDS011;34170;54.364;18.582;2023-04-12T08:23:12;5.13;;;2.67;;
48363;SDS011;34170;54.364;18.582;2023-04-12T08:25:40;10.30;;;4.18;;
48363;SDS011;34170;54.364;18.582;2023-04-12T08:28:07;6.30;;;4.35;;
48363;SDS011;34170;54.364;18.582;2023-04-12T08:30:35;6.75;;;3.90;;
48363;SDS011;34170;54.364;18.582;2023-04-12T08:33:02;8.50;;;4.50;;
48363;SDS011;34170;54.364;18.582;2023-04-12T08:35:30;6.63;;;4.55;;
48363;SDS011;34170;54.364;18.582;2023-04-12T08:37:58;8.77;;;5.30;;
48363;SDS011;34170;54.364;18.582;2023-04-12T08:40:33;8.85;;;5.22;;
48363;SDS011;34170;54.364;18.582;2023-04-12T08:43:01;9.60;;;5.45;;
48363;SDS011;34170;54.364;18.582;2023-04-12T08:45:34;11.70;;;6.60;;
48363;SDS011;34170;54.364;18.582;2023-04-12T08:48:03;11.40;;;6.40;;
48363;SDS011;34170;54.364;18.582;2023-04-12T08:50:32;9.23;;;6.32;;
48363;SDS011;34170;54.364;18.582;2023-04-12T08:52:59;13.13;;;6.68;;
48363;SDS011;34170;54.364;18.582;2023-04-12T08:55:27;9.65;;;5.38;;
48363;SDS011;34170;54.364;18.582;2023-04-12T08:57:54;11.38;;;5.47;;
48363;SDS011;34170;54.364;18.582;2023-04-12T09:00:25;11.40;;;6.43;;
48363;SDS011;34170;54.364;18.582;2023-04-12T09:02:53;12.10;;;5.43;;
48363;SDS011;34170;54.364;18.582;2023-04-12T09:05:26;7.95;;;4.88;;
48363;SDS011;34170;54.364;18.582;2023-04-12T09:07:57;8.45;;;5.03;;
48363;SDS011;34170;54.364;18.582;2023-04-12T09:12:59;10.38;;;5.13;;
48363;SDS011;34170;54.364;18.582;2023-04-12T09:15:27;9.30;;;5.38;;
48363;SDS011;34170;54.364;18.582;2023-04-12T09:20:38;9.68;;;5.57;;
48363;SDS011;34170;54.364;18.582;2023-04-12T09:23:15;10.80;;;6.40;;
48363;SDS011;34170;54.364;18.582;2023-04-12T09:25:45;11.25;;;6.70;;
48363;SDS011;34170;54.364;18.582;2023-04-12T09:28:18;10.13;;;6.18;;
48363;SDS011;34170;54.364;18.582;2023-04-12T09:30:54;9.30;;;6.03;;
48363;SDS011;34170;54.364;18.582;2023-04-12T09:33:33;9.95;;;5.35;;
48363;SDS011;34170;54.364;18.582;2023-04-12T09:36:03;9.48;;;5.68;;
48363;SDS011;34170;54.364;18.582;2023-04-12T09:38:32;10.00;;;4.60;;
48363;SDS011;34170;54.364;18.582;2023-04-12T09:43:53;11.18;;;5.80;;
48363;SDS011;34170;54.364;18.582;2023-04-12T09:46:21;9.45;;;5.75;;
48363;SDS011;34170;54.364;18.582;2023-04-12T09:48:49;10.40;;;6.20;;
48363;SDS011;34170;54.364;18.582;2023-04-12T09:51:31;7.07;;;4.60;;
48363;SDS011;34170;54.364;18.582;2023-04-12T09:54:00;10.30;;;5.45;;
48363;SDS011;34170;54.364;18.582;2023-04-12T09:56:30;10.02;;;5.22;;
48363;SDS011;34170;54.364;18.582;2023-04-12T09:59:00;14.45;;;6.03;;
48363;SDS011;34170;54.364;18.582;2023-04-12T10:01:39;9.30;;;5.80;;
48363;SDS011;34170;54.364;18.582;2023-04-12T10:04:08;10.27;;;5.60;;
48363;SDS011;34170;54.364;18.582;2023-04-12T10:06:36;7.75;;;4.85;;
48363;SDS011;34170;54.364;18.582;2023-04-12T10:09:04;10.35;;;5.75;;
48363;SDS011;34170;54.364;18.582;2023-04-12T10:11:33;9.32;;;6.00;;
48363;SDS011;34170;54.364;18.582;2023-04-12T10:14:01;7.78;;;5.30;;
48363;SDS011;34170;54.364;18.582;2023-04-12T10:16:29;7.85;;;4.38;;
48363;SDS011;34170;54.364;18.582;2023-04-12T10:19:01;9.30;;;4.90;;
48363;SDS011;34170;54.364;18.582;2023-04-12T10:21:30;13.00;;;5.72;;
48363;SDS011;34170;54.364;18.582;2023-04-12T10:23:57;10.15;;;5.53;;
48363;SDS011;34170;54.364;18.582;2023-04-12T10:26:25;8.35;;;4.82;;
48363;SDS011;34170;54.364;18.582;2023-04-12T10:31:58;9.50;;;5.13;;
48363;SDS011;34170;54.364;18.582;2023-04-12T10:34:49;9.52;;;6.53;;
48363;SDS011;34170;54.364;18.582;2023-04-12T10:37:20;10.27;;;6.13;;
48363;SDS011;34170;54.364;18.582;2023-04-12T10:39:51;11.45;;;6.28;;
48363;SDS011;34170;54.364;18.582;2023-04-12T10:42:21;11.65;;;6.82;;
48363;SDS011;34170;54.364;18.582;2023-04-12T10:44:50;18.63;;;10.10;;
48363;SDS011;34170;54.364;18.582;2023-04-12T10:47:54;18.17;;;9.77;;
48363;SDS011;34170;54.364;18.582;2023-04-12T10:50:19;19.77;;;10.77;;
48363;SDS011;34170;54.364;18.582;2023-04-12T10:55:33;27.33;;;15.45;;
48363;SDS011;34170;54.364;18.582;2023-04-12T10:58:01;29.77;;;17.23;;
48363;SDS011;34170;54.364;18.582;2023-04-12T11:03:25;29.65;;;17.10;;
48363;SDS011;34170;54.364;18.582;2023-04-12T11:05:58;31.98;;;19.55;;
48363;SDS011;34170;54.364;18.582;2023-04-12T11:19:38;25.70;;;14.25;;
48363;SDS011;34170;54.364;18.582;2023-04-12T11:22:10;22.65;;;12.05;;
48363;SDS011;34170;54.364;18.582;2023-04-12T11:24:43;26.05;;;11.88;;
48363;SDS011;34170;54.364;18.582;2023-04-12T11:27:11;19.25;;;10.60;;
48363;SDS011;34170;54.364;18.582;2023-04-12T11:29:39;19.73;;;10.93;;
48363;SDS011;34170;54.364;18.582;2023-04-12T11:32:09;21.75;;;10.77;;
48363;SDS011;34170;54.364;18.582;2023-04-12T11:34:39;20.88;;;10.90;;
48363;SDS011;34170;54.364;18.582;2023-04-12T11:37:08;20.90;;;10.20;;
48363;SDS011;34170;54.364;18.582;2023-04-12T11:39:40;20.85;;;10.25;;
48363;SDS011;34170;54.364;18.582;2023-04-12T11:42:17;19.60;;;10.20;;
48363;SDS011;34170;54.364;18.582;2023-04-12T11:44:46;19.08;;;9.20;;
48363;SDS011;34170;54.364;18.582;2023-04-12T11:47:24;17.52;;;9.50;;
48363;SDS011;34170;54.364;18.582;2023-04-12T11:49:53;18.13;;;9.52;;
48363;SDS011;34170;54.364;18.582;2023-04-12T11:52:29;13.85;;;8.32;;
48363;SDS011;34170;54.364;18.582;2023-04-12T11:55:02;14.82;;;8.32;;
48363;SDS011;34170;54.364;18.582;2023-04-12T11:57:33;14.82;;;8.43;;
48363;SDS011;34170;54.364;18.582;2023-04-12T12:00:01;13.98;;;8.02;;
48363;SDS011;34170;54.364;18.582;2023-04-12T12:02:38;15.13;;;8.50;;
48363;SDS011;34170;54.364;18.582;2023-04-12T12:05:22;17.77;;;10.48;;
48363;SDS011;34170;54.364;18.582;2023-04-12T12:07:50;17.83;;;11.63;;
48363;SDS011;34170;54.364;18.582;2023-04-12T12:10:18;19.80;;;12.13;;
48363;SDS011;34170;54.364;18.582;2023-04-12T12:13:10;18.33;;;11.55;;
48363;SDS011;34170;54.364;18.582;2023-04-12T12:15:43;23.88;;;14.05;;
48363;SDS011;34170;54.364;18.582;2023-04-12T12:18:12;20.90;;;12.48;;
48363;SDS011;34170;54.364;18.582;2023-04-12T12:20:48;18.17;;;11.82;;
48363;SDS011;34170;54.364;18.582;2023-04-12T12:23:29;20.50;;;12.13;;
48363;SDS011;34170;54.364;18.582;2023-04-12T12:25:59;22.13;;;13.95;;
48363;SDS011;34170;54.364;18.582;2023-04-12T12:28:47;20.23;;;12.25;;
48363;SDS011;34170;54.364;18.582;2023-04-12T12:31:19;21.67;;;12.82;;
48363;SDS011;34170;54.364;18.582;2023-04-12T12:33:54;20.98;;;12.30;;
48363;SDS011;34170;54.364;18.582;2023-04-12T12:36:32;24.13;;;13.50;;
48363;SDS011;34170;54.364;18.582;2023-04-12T12:39:06;21.02;;;12.82;;
48363;SDS011;34170;54.364;18.582;2023-04-12T12:41:37;19.95;;;11.90;;
48363;SDS011;34170;54.364;18.582;2023-04-12T12:44:06;17.60;;;12.00;;
48363;SDS011;34170;54.364;18.582;2023-04-12T12:46:34;19.45;;;12.48;;
48363;SDS011;34170;54.364;18.582;2023-04-12T12:49:04;18.95;;;12.35;;
48363;SDS011;34170;54.364;18.582;2023-04-12T12:51:32;19.08;;;12.20;;
48363;SDS011;34170;54.364;18.582;2023-04-12T12:53:59;19.65;;;12.57;;
48363;SDS011;34170;54.364;18.582;2023-04-12T12:56:27;21.20;;;13.43;;
48363;SDS011;34170;54.364;18.582;2023-04-12T12:58:54;20.98;;;12.27;;
48363;SDS011;34170;54.364;18.582;2023-04-12T13:01:22;22.55;;;12.85;;
48363;SDS011;34170;54.364;18.582;2023-04-12T13:03:49;19.15;;;12.90;;
48363;SDS011;34170;54.364;18.582;2023-04-12T13:06:18;22.02;;;14.02;;
48363;SDS011;34170;54.364;18.582;2023-04-12T13:08:45;18.73;;;12.73;;
48363;SDS011;34170;54.364;18.582;2023-04-12T13:11:13;20.23;;;14.13;;
48363;SDS011;34170;54.364;18.582;2023-04-12T13:13:43;19.42;;;13.20;;
48363;SDS011;34170;54.364;18.582;2023-04-12T13:16:10;20.65;;;12.90;;
48363;SDS011;34170;54.364;18.582;2023-04-12T13:18:38;23.60;;;14.02;;
48363;SDS011;34170;54.364;18.582;2023-04-12T13:21:06;21.35;;;13.60;;
48363;SDS011;34170;54.364;18.582;2023-04-12T13:23:33;22.27;;;14.05;;
48363;SDS011;34170;54.364;18.582;2023-04-12T13:26:01;22.92;;;14.32;;
48363;SDS011;34170;54.364;18.582;2023-04-12T13:28:29;22.25;;;14.90;;
48363;SDS011;34170;54.364;18.582;2023-04-12T13:30:56;22.33;;;14.15;;
48363;SDS011;34170;54.364;18.582;2023-04-12T13:33:24;20.88;;;13.75;;
48363;SDS011;34170;54.364;18.582;2023-04-12T13:35:51;23.65;;;13.82;;
48363;SDS011;34170;54.364;18.582;2023-04-12T13:38:19;20.15;;;13.50;;
48363;SDS011;34170;54.364;18.582;2023-04-12T13:40:47;33.13;;;22.35;;
48363;SDS011;34170;54.364;18.582;2023-04-12T13:43:14;26.35;;;18.55;;
48363;SDS011;34170;54.364;18.582;2023-04-12T13:45:42;20.77;;;13.77;;
48363;SDS011;34170;54.364;18.582;2023-04-12T13:48:10;20.50;;;12.98;;
48363;SDS011;34170;54.364;18.582;2023-04-12T13:50:38;22.75;;;14.55;;
48363;SDS011;34170;54.364;18.582;2023-04-12T13:53:05;20.65;;;13.88;;
48363;SDS011;34170;54.364;18.582;2023-04-12T13:55:33;20.13;;;13.23;;
48363;SDS011;34170;54.364;18.582;2023-04-12T13:58:00;22.73;;;13.52;;
48363;SDS011;34170;54.364;18.582;2023-04-12T14:00:28;21.73;;;13.55;;
48363;SDS011;34170;54.364;18.582;2023-04-12T14:02:55;22.45;;;13.32;;
48363;SDS011;34170;54.364;18.582;2023-04-12T14:05:23;19.30;;;12.55;;
48363;SDS011;34170;54.364;18.582;2023-04-12T14:07:50;18.30;;;12.00;;
48363;SDS011;34170;54.364;18.582;2023-04-12T14:10:18;18.45;;;12.02;;
48363;SDS011;34170;54.364;18.582;2023-04-12T14:12:46;17.35;;;11.63;;
48363;SDS011;34170;54.364;18.582;2023-04-12T14:15:13;16.55;;;11.23;;
48363;SDS011;34170;54.364;18.582;2023-04-12T14:17:41;17.17;;;12.13;;
48363;SDS011;34170;54.364;18.582;2023-04-12T14:20:08;20.08;;;12.10;;
48363;SDS011;34170;54.364;18.582;2023-04-12T14:22:36;17.08;;;11.30;;
48363;SDS011;34170;54.364;18.582;2023-04-12T14:25:04;17.90;;;11.32;;
48363;SDS011;34170;54.364;18.582;2023-04-12T14:27:32;19.80;;;12.95;;
48363;SDS011;34170;54.364;18.582;2023-04-12T14:30:01;20.45;;;13.95;;
48363;SDS011;34170;54.364;18.582;2023-04-12T14:32:29;20.88;;;13.85;;
48363;SDS011;34170;54.364;18.582;2023-04-12T14:34:57;21.30;;;13.90;;
48363;SDS011;34170;54.364;18.582;2023-04-12T14:37:24;17.80;;;12.65;;
48363;SDS011;34170;54.364;18.582;2023-04-12T14:39:52;21.40;;;13.65;;
48363;SDS011;34170;54.364;18.582;2023-04-12T14:42:19;19.55;;;12.45;;
48363;SDS011;34170;54.364;18.582;2023-04-12T14:44:47;17.05;;;11.38;;
48363;SDS011;34170;54.364;18.582;2023-04-12T14:47:14;20.52;;;13.07;;
48363;SDS011;34170;54.364;18.582;2023-04-12T14:49:42;18.13;;;12.50;;
48363;SDS011;34170;54.364;18.582;2023-04-12T14:52:09;18.15;;;12.30;;
48363;SDS011;34170;54.364;18.582;2023-04-12T14:54:37;18.65;;;11.43;;
48363;SDS011;34170;54.364;18.582;2023-04-12T14:57:04;21.67;;;12.93;;
48363;SDS011;34170;54.364;18.582;2023-04-12T14:59:32;17.42;;;11.45;;
48363;SDS011;34170;54.364;18.582;2023-04-12T15:01:59;20.67;;;12.00;;
48363;SDS011;34170;54.364;18.582;2023-04-12T15:04:27;17.92;;;11.15;;
48363;SDS011;34170;54.364;18.582;2023-04-12T15:06:56;15.13;;;10.25;;
48363;SDS011;34170;54.364;18.582;2023-04-12T15:09:23;17.38;;;11.15;;
48363;SDS011;34170;54.364;18.582;2023-04-12T15:11:51;16.90;;;11.32;;
48363;SDS011;34170;54.364;18.582;2023-04-12T15:14:27;14.85;;;10.30;;
48363;SDS011;34170;54.364;18.582;2023-04-12T15:16:55;15.70;;;10.02;;
48363;SDS011;34170;54.364;18.582;2023-04-12T15:19:23;16.73;;;10.50;;
48363;SDS011;34170;54.364;18.582;2023-04-12T15:21:50;17.52;;;10.68;;
48363;SDS011;34170;54.364;18.582;2023-04-12T15:24:18;18.58;;;10.95;;
48363;SDS011;34170;54.364;18.582;2023-04-12T15:26:50;17.60;;;10.82;;